createdAt,value
2022-10-11T00:00:32.112Z,24
2022-10-11T00:03:02.782Z,24
2022-10-11T00:05:33.172Z,24
2022-10-11T00:08:04.906Z,24
2022-10-11T00:10:36.054Z,24
2022-10-11T00:13:07.297Z,24
2022-10-11T00:15:37.787Z,24
2022-10-11T00:18:08.545Z,24
2022-10-11T00:20:39.687Z,20
2022-10-11T00:23:10.813Z,23
2022-10-11T00:25:41.770Z,24
2022-10-11T00:28:12.410Z,24
2022-10-11T00:30:43.970Z,24
2022-10-11T00:33:15.269Z,20
2022-10-11T00:35:46.442Z,20
2022-10-11T00:38:17.574Z,24
2022-10-11T00:40:48.317Z,20
2022-10-11T00:43:19.461Z,20
2022-10-11T00:45:50.844Z,22
2022-10-11T00:48:21.946Z,20
2022-10-11T00:50:52.740Z,21
2022-10-11T00:53:26.020Z,24
2022-10-11T00:55:57.839Z,20
2022-10-11T00:58:28.720Z,23
2022-10-11T01:00:59.561Z,20
2022-10-11T01:03:30.137Z,22
2022-10-11T01:06:01.617Z,20
2022-10-11T01:08:31.999Z,20
2022-10-11T01:11:02.978Z,20
2022-10-11T01:13:36.100Z,22
2022-10-11T01:16:07.405Z,20
2022-10-11T01:18:41.518Z,20
2022-10-11T01:21:12.236Z,16
2022-10-11T01:23:43.302Z,20
2022-10-11T01:26:15.652Z,20
2022-10-11T01:28:47.940Z,16
2022-10-11T01:31:19.708Z,20
2022-10-11T01:33:50.941Z,20
2022-10-11T01:36:21.925Z,20
2022-10-11T01:38:53.099Z,20
2022-10-11T01:41:23.971Z,20
2022-10-11T01:43:55.241Z,20
2022-10-11T01:46:25.752Z,20
2022-10-11T01:49:01.558Z,20
2022-10-11T01:51:32.048Z,19
2022-10-11T01:54:05.948Z,20
2022-10-11T01:56:36.935Z,19
2022-10-11T01:59:09.934Z,20
2022-10-11T02:01:40.745Z,20
2022-10-11T02:04:13.343Z,18
2022-10-11T02:06:45.153Z,20
2022-10-11T02:09:15.853Z,20
2022-10-11T02:11:48.378Z,20
2022-10-11T02:14:19.950Z,16
2022-10-11T02:16:51.475Z,20
2022-10-11T02:19:22.811Z,20
2022-10-11T02:21:54.135Z,20
2022-10-11T02:24:25.867Z,20
2022-10-11T02:26:56.652Z,16
2022-10-11T02:29:29.339Z,20
2022-10-11T02:32:01.064Z,22
2022-10-11T02:34:32.212Z,16
2022-10-11T02:37:04.274Z,20
2022-10-11T02:39:36.226Z,16
2022-10-11T02:42:07.471Z,18
2022-10-11T02:44:40.300Z,20
2022-10-11T02:47:11.880Z,20
2022-10-11T02:49:41.428Z,17
2022-10-11T02:52:12.739Z,20
2022-10-11T02:54:43.855Z,17
2022-10-11T02:57:15.315Z,16
2022-10-11T02:59:47.000Z,20
2022-10-11T03:02:16.805Z,20
2022-10-11T03:04:48.445Z,17
2022-10-11T03:07:19.765Z,20
2022-10-11T03:09:51.324Z,20
2022-10-11T03:12:21.879Z,16
2022-10-11T03:14:52.915Z,20
2022-10-11T03:17:37.992Z,23
2022-10-11T03:19:57.061Z,17
2022-10-11T03:22:28.518Z,20
2022-10-11T03:25:03.877Z,20
2022-10-11T03:27:31.577Z,19
2022-10-11T03:30:02.807Z,20
2022-10-11T03:32:33.820Z,20
2022-10-11T03:35:04.881Z,20
2022-10-11T03:37:36.180Z,20
2022-10-11T03:40:07.319Z,20
2022-10-11T03:42:38.220Z,20
2022-10-11T03:45:11.634Z,16
2022-10-11T03:47:42.270Z,20
2022-10-11T03:50:13.446Z,20
2022-10-11T03:52:44.267Z,20
2022-10-11T03:55:15.162Z,20
2022-10-11T03:57:46.102Z,20
2022-10-11T04:00:16.864Z,20
2022-10-11T04:02:48.792Z,20
2022-10-11T04:05:19.534Z,20
2022-10-11T04:07:48.940Z,17
2022-10-11T04:10:20.820Z,20
2022-10-11T04:12:52.120Z,20
2022-10-11T04:15:23.314Z,20
2022-10-11T04:17:55.482Z,20
2022-10-11T04:20:25.087Z,19
2022-10-11T04:22:56.130Z,20
2022-10-11T04:25:27.869Z,24
2022-10-11T04:27:59.630Z,20
2022-10-11T04:30:30.645Z,20
2022-10-11T04:33:01.865Z,20
2022-10-11T04:35:32.878Z,20
2022-10-11T04:38:03.936Z,20
2022-10-11T04:40:38.887Z,16
2022-10-11T04:43:13.065Z,20
2022-10-11T04:45:45.149Z,20
2022-10-11T04:48:17.334Z,20
2022-10-11T04:50:48.929Z,20
2022-10-11T04:53:19.720Z,20
2022-10-11T04:55:50.909Z,16
2022-10-11T04:58:22.028Z,20
2022-10-11T05:00:53.185Z,23
2022-10-11T05:03:26.173Z,20
2022-10-11T05:05:56.914Z,20
2022-10-11T05:08:28.136Z,20
2022-10-11T05:11:02.722Z,20
2022-10-11T05:13:33.071Z,24
2022-10-11T05:16:09.711Z,24
2022-10-11T05:18:36.029Z,23
2022-10-11T05:21:07.033Z,24
2022-10-11T05:23:36.612Z,20
2022-10-11T05:26:08.105Z,21
2022-10-11T05:28:42.336Z,20
2022-10-11T05:31:13.408Z,20
2022-10-11T05:33:44.120Z,20
2022-10-11T05:36:15.529Z,20
2022-10-11T05:38:46.781Z,20
2022-10-11T05:41:19.109Z,19
2022-10-11T05:43:50.201Z,21
2022-10-11T05:46:20.936Z,20
2022-10-11T05:48:56.911Z,20
2022-10-11T05:51:28.026Z,20
2022-10-11T05:53:59.123Z,20
2022-10-11T05:56:30.332Z,24
2022-10-11T05:59:02.623Z,20
2022-10-11T06:01:32.408Z,20
2022-10-11T06:04:09.007Z,20
2022-10-11T06:06:39.938Z,21
2022-10-11T06:09:10.846Z,20
2022-10-11T06:11:41.939Z,20
2022-10-11T06:14:12.259Z,23
2022-10-11T06:16:43.399Z,20
2022-10-11T06:19:15.049Z,24
2022-10-11T06:21:45.806Z,24
2022-10-11T06:24:14.948Z,22
2022-10-11T06:26:46.572Z,24
2022-10-11T06:29:18.224Z,20
2022-10-11T06:31:50.847Z,24
2022-10-11T06:34:20.158Z,24
2022-10-11T06:36:50.978Z,22
2022-10-11T06:39:22.267Z,24
2022-10-11T06:41:54.690Z,20
2022-10-11T06:44:25.975Z,24
2022-10-11T06:46:57.015Z,24
2022-10-11T06:49:26.185Z,23
2022-10-11T06:51:56.706Z,24
2022-10-11T06:54:27.836Z,24
2022-10-11T06:56:59.004Z,23
2022-10-11T06:59:29.426Z,21
2022-10-11T07:02:01.001Z,24
2022-10-11T07:04:31.464Z,24
2022-10-11T07:07:03.266Z,24
2022-10-11T07:09:34.079Z,24
2022-10-11T07:12:05.828Z,20
2022-10-11T07:14:36.464Z,24
2022-10-11T07:17:06.170Z,24
2022-10-11T07:19:37.288Z,24
2022-10-11T07:22:08.682Z,24
2022-10-11T07:24:38.994Z,21
2022-10-11T07:27:09.772Z,20
2022-10-11T07:29:40.816Z,24
2022-10-11T07:32:11.614Z,24
2022-10-11T07:34:42.746Z,24
2022-10-11T07:37:13.465Z,21
2022-10-11T07:39:44.074Z,24
2022-10-11T07:42:16.277Z,24
2022-10-11T07:44:48.816Z,25
2022-10-11T07:47:19.466Z,24
2022-10-11T07:49:49.946Z,24
2022-10-11T07:52:21.269Z,24
2022-10-11T07:54:51.604Z,25
2022-10-11T07:57:22.622Z,24
2022-10-11T07:59:53.338Z,28
2022-10-11T08:02:24.258Z,28
2022-10-11T08:04:55.389Z,28
2022-10-11T08:07:32.080Z,25
2022-10-11T08:10:02.251Z,28
2022-10-11T08:12:32.733Z,24
2022-10-11T08:15:03.184Z,26
2022-10-11T08:17:34.920Z,27
2022-10-11T08:20:05.963Z,24
2022-10-11T08:22:37.492Z,23
2022-10-11T08:25:07.342Z,24
2022-10-11T08:27:36.791Z,22
2022-10-11T08:30:10.060Z,24
2022-10-11T08:32:40.720Z,24
2022-10-11T08:35:11.372Z,24
2022-10-11T08:37:42.118Z,24
2022-10-11T08:40:12.340Z,26
2022-10-11T08:42:43.304Z,24
2022-10-11T08:45:14.547Z,24
2022-10-11T08:47:45.560Z,26
2022-10-11T08:50:16.552Z,24
2022-10-11T08:52:49.085Z,24
2022-10-11T08:55:19.531Z,24
2022-10-11T08:57:51.100Z,24
2022-10-11T09:00:22.747Z,24
2022-10-11T09:03:07.853Z,28
2022-10-11T09:05:24.098Z,31
2022-10-11T09:07:56.266Z,28
2022-10-11T09:10:28.223Z,27
2022-10-11T09:12:57.934Z,32
2022-10-11T09:15:28.656Z,32
2022-10-11T09:17:58.932Z,32
2022-10-11T09:20:30.677Z,28
2022-10-11T09:23:01.739Z,28
2022-10-11T09:25:34.134Z,28
2022-10-11T09:28:03.854Z,28
2022-10-11T09:30:33.760Z,28
2022-10-11T09:33:04.162Z,29
2022-10-11T09:35:34.712Z,31
2022-10-11T09:38:07.404Z,28
2022-10-11T09:40:37.859Z,29
2022-10-11T09:43:10.023Z,30
2022-10-11T09:45:44.588Z,32
2022-10-11T09:48:15.734Z,32
2022-10-11T09:50:46.990Z,33
2022-10-11T09:53:17.909Z,32
2022-10-11T09:55:48.744Z,32
2022-10-11T09:58:19.274Z,32
2022-10-11T10:00:49.841Z,28
2022-10-11T10:03:28.932Z,32
2022-10-11T10:06:01.086Z,32
2022-10-11T10:08:31.709Z,30
2022-10-11T10:11:02.219Z,30
2022-10-11T10:13:32.970Z,32
2022-10-11T10:16:03.821Z,29
2022-10-11T10:18:35.191Z,33
2022-10-11T10:21:08.435Z,32
2022-10-11T10:23:38.490Z,39
2022-10-11T10:26:09.131Z,40
2022-10-11T10:28:39.687Z,36
2022-10-11T10:31:10.416Z,42
2022-10-11T10:33:41.225Z,44
2022-10-11T10:36:12.181Z,39
2022-10-11T10:38:43.164Z,48
2022-10-11T10:41:13.673Z,45
2022-10-11T10:43:44.213Z,48
2022-10-11T10:46:14.729Z,46
2022-10-11T10:49:23.466Z,43
2022-10-11T10:51:16.838Z,48
2022-10-11T10:53:47.010Z,45
2022-10-11T10:56:26.638Z,48
2022-10-11T10:58:56.763Z,45
2022-10-11T11:01:25.670Z,45
2022-10-11T11:03:56.559Z,48
2022-10-11T11:06:32.837Z,44
2022-10-11T11:09:02.106Z,48
2022-10-11T11:11:32.138Z,51
2022-10-11T11:14:02.933Z,52
2022-10-11T11:16:36.065Z,49
2022-10-11T11:19:07.015Z,53
2022-10-11T11:21:41.470Z,54
2022-10-11T11:24:08.986Z,52
2022-10-11T11:26:43.434Z,51
2022-10-11T11:29:12.798Z,52
2022-10-11T11:31:43.692Z,49
2022-10-11T11:34:15.205Z,52
2022-10-11T11:36:46.025Z,52
2022-10-11T11:39:18.317Z,51
2022-10-11T11:41:48.961Z,55
2022-10-11T11:44:25.101Z,50
2022-10-11T11:46:54.057Z,49
2022-10-11T11:49:28.915Z,48
2022-10-11T11:52:00.312Z,48
2022-10-11T11:54:31.747Z,51
2022-10-11T11:57:02.805Z,54
2022-10-11T11:59:34.746Z,48
2022-10-11T12:02:05.735Z,48
2022-10-11T12:04:36.626Z,45
2022-10-11T12:07:19.191Z,44
2022-10-11T12:09:38.371Z,51
2022-10-11T12:12:09.302Z,50
2022-10-11T12:14:39.829Z,51
2022-10-11T12:17:10.639Z,48
2022-10-11T12:19:41.547Z,52
2022-10-11T12:22:12.941Z,53
2022-10-11T12:24:43.850Z,47
2022-10-11T12:27:14.419Z,49
2022-10-11T12:29:45.322Z,52
2022-10-11T12:32:16.158Z,47
2022-10-11T12:34:46.902Z,52
2022-10-11T12:37:17.224Z,52
2022-10-11T12:39:46.274Z,48
2022-10-11T12:42:17.496Z,50
2022-10-11T12:44:48.845Z,49
2022-10-11T12:47:19.807Z,56
2022-10-11T12:49:51.175Z,48
2022-10-11T12:52:22.173Z,49
2022-10-11T12:54:53.523Z,51
2022-10-11T12:57:26.063Z,48
2022-10-11T12:59:57.988Z,52
2022-10-11T13:02:30.226Z,51
2022-10-11T13:05:02.589Z,49
2022-10-11T13:07:33.405Z,52
2022-10-11T13:10:04.618Z,55
2022-10-11T13:12:35.668Z,52
2022-10-11T13:15:07.299Z,52
2022-10-11T13:17:38.759Z,52
2022-10-11T13:20:11.741Z,59
2022-10-11T13:22:43.894Z,57
2022-10-11T13:25:15.424Z,53
2022-10-11T13:27:46.745Z,52
2022-10-11T13:30:17.650Z,55
2022-10-11T13:32:48.661Z,52
2022-10-11T13:35:22.312Z,52
2022-10-11T13:37:51.649Z,50
2022-10-11T13:40:22.855Z,52
2022-10-11T13:42:54.144Z,52
2022-10-11T13:45:25.300Z,49
2022-10-11T13:47:56.598Z,51
2022-10-11T13:50:28.287Z,51
2022-10-11T13:53:00.613Z,52
2022-10-11T13:55:33.427Z,50
2022-10-11T13:58:05.103Z,55
2022-10-11T14:00:40.326Z,52
2022-10-11T14:03:11.980Z,51
2022-10-11T14:05:43.385Z,49
2022-10-11T14:08:14.406Z,52
2022-10-11T14:10:46.941Z,51
2022-10-11T14:13:18.942Z,49
2022-10-11T14:15:51.018Z,50
2022-10-11T14:18:22.167Z,53
2022-10-11T14:20:53.414Z,48
2022-10-11T14:23:26.119Z,48
2022-10-11T14:25:57.791Z,52
2022-10-11T14:28:29.003Z,55
2022-10-11T14:31:00.624Z,49
2022-10-11T14:33:32.974Z,48
2022-10-11T14:36:04.699Z,56
2022-10-11T14:38:36.969Z,52
2022-10-11T14:41:07.987Z,51
2022-10-11T14:43:39.081Z,51
2022-10-11T14:46:10.158Z,53
2022-10-11T14:48:54.728Z,52
2022-10-11T14:51:14.806Z,56
2022-10-11T14:53:46.110Z,55
2022-10-11T14:56:21.226Z,56
2022-10-11T14:58:48.793Z,52
2022-10-11T15:01:19.920Z,52
2022-10-11T15:03:52.848Z,55
2022-10-11T15:06:24.470Z,55
2022-10-11T15:08:56.189Z,53
2022-10-11T15:11:28.540Z,56
2022-10-11T15:14:00.265Z,56
2022-10-11T15:16:31.035Z,53
2022-10-11T15:19:05.191Z,51
2022-10-11T15:21:36.680Z,56
2022-10-11T15:24:07.771Z,52
2022-10-11T15:26:39.140Z,52
2022-10-11T15:29:10.560Z,56
2022-10-11T15:31:43.224Z,54
2022-10-11T15:34:14.415Z,58
2022-10-11T15:36:45.550Z,57
2022-10-11T15:39:17.186Z,55
2022-10-11T15:41:48.787Z,56
2022-10-11T15:44:26.285Z,58
2022-10-11T15:46:57.734Z,61
2022-10-11T15:49:30.333Z,56
2022-10-11T15:52:01.287Z,55
2022-10-11T15:54:33.219Z,55
2022-10-11T15:57:06.952Z,53
2022-10-11T15:59:38.469Z,59
2022-10-11T16:02:11.390Z,63
2022-10-11T16:04:43.046Z,56
2022-10-11T16:07:15.175Z,64
2022-10-11T16:09:46.404Z,60
2022-10-11T16:12:26.719Z,60
2022-10-11T16:14:58.231Z,61
2022-10-11T16:17:32.821Z,56
2022-10-11T16:20:04.555Z,56
2022-10-11T16:22:36.724Z,60
2022-10-11T16:25:07.746Z,62
2022-10-11T16:27:38.372Z,60
2022-10-11T16:30:10.849Z,64
2022-10-11T16:32:41.925Z,61
2022-10-11T16:35:12.147Z,64
2022-10-11T16:37:43.497Z,65
2022-10-11T16:40:14.754Z,64
2022-10-11T16:42:46.683Z,66
2022-10-11T16:45:18.407Z,60
2022-10-11T16:47:51.210Z,60
2022-10-11T16:50:23.212Z,64
2022-10-11T16:52:53.644Z,66
2022-10-11T16:55:24.660Z,62
2022-10-11T16:58:01.827Z,61
2022-10-11T17:00:31.483Z,63
2022-10-11T17:03:02.613Z,65
2022-10-11T17:05:35.976Z,60
2022-10-11T17:08:09.472Z,66
2022-10-11T17:10:40.725Z,65
2022-10-11T17:13:10.361Z,60
2022-10-11T17:15:41.463Z,63
2022-10-11T17:20:47.290Z,64
2022-10-11T17:23:18.662Z,66
2022-10-11T17:25:49.766Z,68
2022-10-11T17:28:22.141Z,68
2022-10-11T17:30:53.141Z,64
2022-10-11T17:33:23.622Z,73
2022-10-11T17:35:55.837Z,64
2022-10-11T17:38:27.267Z,70
2022-10-11T17:40:59.429Z,69
2022-10-11T17:43:30.794Z,74
2022-10-11T17:46:05.342Z,76
2022-10-11T17:48:36.834Z,71
2022-10-11T17:51:08.083Z,72
2022-10-11T17:53:44.296Z,77
2022-10-11T17:56:20.966Z,76
2022-10-11T17:58:51.066Z,81
2022-10-11T18:01:22.768Z,80
2022-10-11T18:03:53.946Z,79
2022-10-11T18:06:26.663Z,76
2022-10-11T18:08:58.231Z,80
2022-10-11T18:11:29.403Z,76
2022-10-11T18:13:58.761Z,74
2022-10-11T18:16:30.012Z,79
2022-10-11T18:19:01.481Z,73
2022-10-11T18:21:35.123Z,75
2022-10-11T18:24:06.701Z,72
2022-10-11T18:26:39.677Z,80
2022-10-11T18:29:11.083Z,73
2022-10-11T18:31:43.617Z,72
2022-10-11T18:34:14.771Z,68
2022-10-11T18:36:45.925Z,72
2022-10-11T18:39:17.444Z,80
2022-10-11T18:41:53.722Z,76
2022-10-11T18:44:24.866Z,72
2022-10-11T18:46:57.852Z,75
2022-10-11T18:49:30.238Z,68
2022-10-11T18:52:02.305Z,72
2022-10-11T18:54:33.519Z,74
2022-10-11T18:57:04.745Z,76
2022-10-11T18:59:34.960Z,76
2022-10-11T19:02:06.306Z,83
2022-10-11T19:04:39.767Z,77
2022-10-11T19:07:11.152Z,74
2022-10-11T19:09:42.233Z,80
2022-10-11T19:12:13.508Z,76
2022-10-11T19:14:44.771Z,78
2022-10-11T19:17:15.973Z,68
2022-10-11T19:19:47.660Z,79
2022-10-11T19:22:19.172Z,80
2022-10-11T19:24:50.729Z,79
2022-10-11T19:27:25.478Z,80
2022-10-11T19:29:55.069Z,76
2022-10-11T19:32:26.018Z,84
2022-10-11T19:37:38.144Z,76
2022-10-11T19:40:09.701Z,81
2022-10-11T19:42:41.021Z,75
2022-10-11T19:45:13.604Z,81
2022-10-11T19:47:45.050Z,76
2022-10-11T19:50:16.691Z,83
2022-10-11T19:52:48.125Z,76
2022-10-11T19:55:19.122Z,76
2022-10-11T19:57:51.207Z,78
2022-10-11T20:00:23.868Z,78
2022-10-11T20:05:30.344Z,75
2022-10-11T20:08:02.721Z,80
2022-10-11T20:13:12.189Z,79
2022-10-11T20:15:43.572Z,77
2022-10-11T20:18:17.024Z,84
2022-10-11T20:20:48.562Z,88
2022-10-11T20:23:20.573Z,84
2022-10-11T20:25:50.219Z,88
2022-10-11T20:30:57.355Z,85
2022-10-11T20:33:29.316Z,90
2022-10-11T20:36:00.344Z,82
2022-10-11T20:38:32.630Z,85
2022-10-11T20:41:04.120Z,78
2022-10-11T20:43:36.020Z,81
2022-10-11T20:46:07.742Z,99
2022-10-11T20:48:39.329Z,83
2022-10-11T20:51:11.312Z,109
2022-10-11T20:53:43.420Z,91
2022-10-11T20:56:17.881Z,103
2022-10-11T20:58:49.432Z,85
2022-10-11T21:01:21.429Z,89
2022-10-11T21:03:52.711Z,84
2022-10-11T21:06:24.551Z,86
2022-10-11T21:08:56.980Z,82
2022-10-11T21:11:28.599Z,83
2022-10-11T21:13:59.844Z,83
2022-10-11T21:16:31.627Z,73
2022-10-11T21:19:02.611Z,87
2022-10-11T21:21:33.845Z,85
2022-10-11T21:24:05.164Z,76
2022-10-11T21:26:36.747Z,81
2022-10-11T21:29:08.432Z,83
2022-10-11T21:31:40.897Z,81
2022-10-11T21:34:13.142Z,83
2022-10-11T21:36:47.521Z,77
2022-10-11T21:39:22.346Z,80
2022-10-11T21:41:54.044Z,78
2022-10-11T21:44:26.582Z,72
2022-10-11T21:47:06.845Z,76
2022-10-11T21:49:29.124Z,73
2022-10-11T21:52:00.803Z,68
2022-10-11T21:54:32.263Z,75
2022-10-11T21:57:04.299Z,72
2022-10-11T21:59:36.132Z,72
2022-10-11T22:02:07.557Z,76
2022-10-11T22:04:39.424Z,73
2022-10-11T22:07:10.590Z,71
2022-10-11T22:09:43.251Z,76
2022-10-11T22:12:17.088Z,75
2022-10-11T22:14:46.226Z,75
2022-10-11T22:17:16.436Z,74
2022-10-11T22:19:51.301Z,74
2022-10-11T22:22:21.882Z,72
2022-10-11T22:24:52.157Z,72
2022-10-11T22:27:22.714Z,70
2022-10-11T22:29:53.193Z,67
2022-10-11T22:32:23.945Z,72
2022-10-11T22:34:54.690Z,69
2022-10-11T22:37:25.092Z,65
2022-10-11T22:39:55.808Z,68
2022-10-11T22:42:27.548Z,68
2022-10-11T22:44:57.117Z,71
2022-10-11T22:47:28.263Z,69
2022-10-11T22:49:58.651Z,69
2022-10-11T22:52:29.722Z,69
2022-10-11T22:55:00.864Z,69
2022-10-11T22:57:33.678Z,69
2022-10-11T23:00:03.891Z,77
2022-10-11T23:02:34.735Z,68
2022-10-11T23:05:07.555Z,77
2022-10-11T23:07:40.419Z,70
2022-10-11T23:10:11.420Z,76
2022-10-11T23:12:42.869Z,69
2022-10-11T23:15:14.454Z,66
2022-10-11T23:17:46.032Z,72
2022-10-11T23:20:17.649Z,72
2022-10-11T23:22:48.595Z,74
2022-10-11T23:25:18.244Z,68
2022-10-11T23:27:51.060Z,68
2022-10-11T23:30:22.318Z,70
2022-10-11T23:32:53.141Z,72
2022-10-11T23:35:23.853Z,68
2022-10-11T23:37:54.908Z,71
2022-10-11T23:40:26.058Z,68
2022-10-11T23:42:56.992Z,72
2022-10-11T23:45:26.658Z,72
2022-10-11T23:47:58.168Z,71
2022-10-11T23:50:30.307Z,72
2022-10-11T23:53:01.613Z,68
2022-10-11T23:55:32.976Z,69
2022-10-11T23:58:03.937Z,69
